Agios Georgios I — SX9857 — position and weather

sailwx.info

Track history (hours):
 
Tides and Currents Weather Stations Pressure Air Temp Water Temp Dewpoint Dewpoint Depression Visibility Wind Speed Wind Dir Waves Ship Positions

Agios Georgios I

Last reported at 2014-Oct-24 12:33 UTC. Time now 2014-Oct-24 12:55 UTC.
Position N 37°57' E 023°35'.

Length 59 m; draft 5 m.

Type: Ship (hazmat cat B). MMSI: 239912000.

Date/timePositionNaut miles runAvg speedWind from/ knotsBaromVisibWave heightAir tempDewpointWater temp
2014-Oct-24 12:33N 37°57' E 023°35'0 0.0
2014-Oct-24 11:33N 37°57' E 023°35'0 0.0
2014-Oct-24 10:33N 37°57' E 023°35'0 0.0
2014-Oct-24 09:33N 37°57' E 023°35'0 0.1
2014-Oct-24 08:33N 37°57' E 023°35'0 0.0
2014-Oct-24 07:33N 37°57' E 023°35'0 0.0
2014-Oct-24 06:33N 37°57' E 023°35'7 6.7
2014-Oct-24 05:33N 37°51' E 023°39'9 9.1
2014-Oct-24 04:33N 37°43' E 023°44'12 8.3
2014-Oct-24 03:09N 37°37' E 023°56'22 8.6
2014-Oct-24 00:32N 37°30' E 024°23'10 9.1
2014-Oct-23 23:26N 37°31' E 024°36'8 8.9
2014-Oct-23 22:33N 37°32' E 024°46'10 9.0
2014-Oct-23 21:24N 37°31' E 024°59'7 8.4
2014-Oct-23 20:33N 37°31' E 025°08'8 7.7
2014-Oct-23 19:33N 37°31' E 025°17'7 7.4
2014-Oct-23 18:33N 37°33' E 025°26'8 7.5
2014-Oct-23 17:33N 37°35' E 025°35'7 7.0
2014-Oct-23 16:33N 37°36' E 025°44'9 6.4
2014-Oct-23 15:13N 37°38' E 025°55'4 6.2
2014-Oct-23 14:33N 37°38' E 025°60'  
2014-Oct-17 15:24N 37°30' E 024°58'4 3.8
2014-Oct-17 14:22N 37°26' E 024°56'0 0.0
2014-Oct-17 13:26N 37°26' E 024°56'0 0.0
2014-Oct-17 12:30N 37°26' E 024°56'0 0.0
2014-Oct-17 11:20N 37°26' E 024°56'0 0.0
2014-Oct-17 10:19N 37°26' E 024°56'0 0.0
2014-Oct-17 09:30N 37°26' E 024°56'0 0.0
2014-Oct-17 08:26N 37°26' E 024°56'0 0.0
2014-Oct-17 07:08N 37°26' E 024°56'0 0.0
2014-Oct-17 06:31N 37°26' E 024°56'0 0.0
2014-Oct-17 05:23N 37°26' E 024°56'1 1.6
2014-Oct-17 04:31N 37°26' E 024°58'5 5.7
2014-Oct-17 03:32N 37°22' E 025°03'9 8.9
2014-Oct-17 02:33N 37°16' E 025°11'9 8.7
2014-Oct-17 01:33N 37°09' E 025°18'4 4.3
2014-Oct-17 00:33N 37°06' E 025°22'0 0.0
2014-Oct-16 23:33N 37°06' E 025°22'0 0.0
2014-Oct-16 22:33N 37°06' E 025°22'0 0.3
2014-Oct-16 21:33N 37°06' E 025°22'0 0.3
2014-Oct-16 20:33N 37°06' E 025°22'0 0.0
2014-Oct-16 19:33N 37°06' E 025°22'7 7.1
2014-Oct-16 18:33N 37°10' E 025°15'7 5.4
2014-Oct-16 17:19N 37°05' E 025°09'0 0.0
2014-Oct-16 16:29N 37°05' E 025°09'0 0.0
2014-Oct-16 15:30N 37°05' E 025°09'2 1.2
2014-Oct-16 14:15N 37°06' E 025°08'6 9.0
2014-Oct-16 13:33N 37°12' E 025°11'9 9.0
2014-Oct-16 12:33N 37°20' E 025°16'8 8.3
2014-Oct-16 11:33N 37°28' E 025°19'1 1.0
2014-Oct-16 10:33N 37°27' E 025°19'0 0.4
2014-Oct-16 09:33N 37°27' E 025°19'1 0.6
2014-Oct-16 08:33N 37°28' E 025°19'0 0.0
2014-Oct-16 07:33N 37°28' E 025°19'0 0.0
2014-Oct-16 06:32N 37°28' E 025°19'0 0.0
2014-Oct-16 05:33N 37°28' E 025°19'2 1.9
2014-Oct-16 04:33N 37°28' E 025°17'5 5.1
2014-Oct-16 03:33N 37°30' E 025°12'3 2.7
2014-Oct-16 02:33N 37°32' E 025°09'0 0.0
2014-Oct-16 01:33N 37°32' E 025°09'0 0.0
2014-Oct-16 00:33N 37°32' E 025°09'2 1.8
2014-Oct-15 23:33N 37°32' E 025°07'9 9.2
2014-Oct-15 22:33N 37°32' E 024°55'9 9.2
2014-Oct-15 21:33N 37°31' E 024°44'9 9.1
2014-Oct-15 20:33N 37°31' E 024°32'12 9.3
2014-Oct-15 19:16N 37°31' E 024°17'7 9.4
2014-Oct-15 18:33N 37°32' E 024°09'10 9.9
2014-Oct-15 17:31N 37°36' E 023°57'9 9.3
2014-Oct-15 16:31N 37°39' E 023°46'8 8.3
2014-Oct-15 15:33N 37°45' E 023°40'8 8.3
2014-Oct-15 14:33N 37°50' E 023°31'9 9.2
2014-Oct-15 13:33N 37°52' E 023°20'10 9.2
2014-Oct-15 12:30N 37°54' E 023°08'2 2.3
2014-Oct-15 11:28N 37°55' E 023°05'0 0.0
2014-Oct-15 10:32N 37°55' E 023°05'0 0.0
2014-Oct-15 09:33N 37°55' E 023°05'0 0.0
2014-Oct-15 08:27N 37°55' E 023°05'0 0.1
2014-Oct-15 07:29N 37°55' E 023°05'0 0.5
2014-Oct-15 06:30N 37°55' E 023°06'0 0.0
2014-Oct-15 04:30N 37°55' E 023°06'0 0.0
2014-Oct-15 03:32N 37°55' E 023°06'6 5.9
2014-Oct-15 02:30N 37°53' E 023°13'8 8.8
2014-Oct-15 01:33N 37°51' E 023°24'9 8.7
2014-Oct-15 00:33N 37°50' E 023°35'7 7.4
2014-Oct-14 23:33N 37°46' E 023°42'8 8.4
2014-Oct-14 22:33N 37°39' E 023°49'29 8.4
2014-Oct-14 19:10N 37°30' E 024°23'6 8.6
2014-Oct-14 18:30N 37°31' E 024°30'8 9.0
2014-Oct-14 17:33N 37°31' E 024°41'14 7.0
2014-Oct-14 15:33N 37°27' E 024°58'1 1.2
2014-Oct-14 14:31N 37°26' E 024°56'1 0.5
2014-Oct-14 13:07N 37°26' E 024°57'  
Track history (hours):
 
Tides and Currents Weather Stations Pressure Air Temp Water Temp Dewpoint Dewpoint Depression Visibility Wind Speed Wind Dir Waves Ship Positions

Agios Georgios I

Last reported at 2014-Oct-24 12:33 UTC. Time now 2014-Oct-24 12:55 UTC.
Position N 37°57' E 023°35'.

Length 59 m; draft 5 m.

Type: Ship (hazmat cat B). MMSI: 239912000.

Date/timePositionNaut miles runAvg speedWind from/ knotsBaromVisibWave heightAir tempDewpointWater temp
2014-Oct-24 12:33N 37°57' E 023°35'0 0.0
2014-Oct-24 11:33N 37°57' E 023°35'0 0.0
2014-Oct-24 10:33N 37°57' E 023°35'0 0.0
2014-Oct-24 09:33N 37°57' E 023°35'0 0.1
2014-Oct-24 08:33N 37°57' E 023°35'0 0.0
2014-Oct-24 07:33N 37°57' E 023°35'0 0.0
2014-Oct-24 06:33N 37°57' E 023°35'7 6.7
2014-Oct-24 05:33N 37°51' E 023°39'9 9.1
2014-Oct-24 04:33N 37°43' E 023°44'12 8.3
2014-Oct-24 03:09N 37°37' E 023°56'22 8.6
2014-Oct-24 00:32N 37°30' E 024°23'10 9.1
2014-Oct-23 23:26N 37°31' E 024°36'8 8.9
2014-Oct-23 22:33N 37°32' E 024°46'10 9.0
2014-Oct-23 21:24N 37°31' E 024°59'7 8.4
2014-Oct-23 20:33N 37°31' E 025°08'8 7.7
2014-Oct-23 19:33N 37°31' E 025°17'7 7.4
2014-Oct-23 18:33N 37°33' E 025°26'8 7.5
2014-Oct-23 17:33N 37°35' E 025°35'7 7.0
2014-Oct-23 16:33N 37°36' E 025°44'9 6.4
2014-Oct-23 15:13N 37°38' E 025°55'4 6.2
2014-Oct-23 14:33N 37°38' E 025°60'  
2014-Oct-17 15:24N 37°30' E 024°58'4 3.8
2014-Oct-17 14:22N 37°26' E 024°56'0 0.0
2014-Oct-17 13:26N 37°26' E 024°56'0 0.0
2014-Oct-17 12:30N 37°26' E 024°56'0 0.0
2014-Oct-17 11:20N 37°26' E 024°56'0 0.0
2014-Oct-17 10:19N 37°26' E 024°56'0 0.0
2014-Oct-17 09:30N 37°26' E 024°56'0 0.0
2014-Oct-17 08:26N 37°26' E 024°56'0 0.0
2014-Oct-17 07:08N 37°26' E 024°56'0 0.0
2014-Oct-17 06:31N 37°26' E 024°56'0 0.0
2014-Oct-17 05:23N 37°26' E 024°56'1 1.6
2014-Oct-17 04:31N 37°26' E 024°58'5 5.7
2014-Oct-17 03:32N 37°22' E 025°03'9 8.9
2014-Oct-17 02:33N 37°16' E 025°11'9 8.7
2014-Oct-17 01:33N 37°09' E 025°18'4 4.3
2014-Oct-17 00:33N 37°06' E 025°22'0 0.0
2014-Oct-16 23:33N 37°06' E 025°22'0 0.0
2014-Oct-16 22:33N 37°06' E 025°22'0 0.3
2014-Oct-16 21:33N 37°06' E 025°22'0 0.3
2014-Oct-16 20:33N 37°06' E 025°22'0 0.0
2014-Oct-16 19:33N 37°06' E 025°22'7 7.1
2014-Oct-16 18:33N 37°10' E 025°15'7 5.4
2014-Oct-16 17:19N 37°05' E 025°09'0 0.0
2014-Oct-16 16:29N 37°05' E 025°09'0 0.0
2014-Oct-16 15:30N 37°05' E 025°09'2 1.2
2014-Oct-16 14:15N 37°06' E 025°08'6 9.0
2014-Oct-16 13:33N 37°12' E 025°11'9 9.0
2014-Oct-16 12:33N 37°20' E 025°16'8 8.3
2014-Oct-16 11:33N 37°28' E 025°19'1 1.0
2014-Oct-16 10:33N 37°27' E 025°19'0 0.4
2014-Oct-16 09:33N 37°27' E 025°19'1 0.6
2014-Oct-16 08:33N 37°28' E 025°19'0 0.0
2014-Oct-16 07:33N 37°28' E 025°19'0 0.0
2014-Oct-16 06:32N 37°28' E 025°19'0 0.0
2014-Oct-16 05:33N 37°28' E 025°19'2 1.9
2014-Oct-16 04:33N 37°28' E 025°17'5 5.1
2014-Oct-16 03:33N 37°30' E 025°12'3 2.7
2014-Oct-16 02:33N 37°32' E 025°09'0 0.0
2014-Oct-16 01:33N 37°32' E 025°09'0 0.0
2014-Oct-16 00:33N 37°32' E 025°09'2 1.8
2014-Oct-15 23:33N 37°32' E 025°07'9 9.2
2014-Oct-15 22:33N 37°32' E 024°55'9 9.2
2014-Oct-15 21:33N 37°31' E 024°44'9 9.1
2014-Oct-15 20:33N 37°31' E 024°32'12 9.3
2014-Oct-15 19:16N 37°31' E 024°17'7 9.4
2014-Oct-15 18:33N 37°32' E 024°09'10 9.9
2014-Oct-15 17:31N 37°36' E 023°57'9 9.3
2014-Oct-15 16:31N 37°39' E 023°46'8 8.3
2014-Oct-15 15:33N 37°45' E 023°40'8 8.3
2014-Oct-15 14:33N 37°50' E 023°31'9 9.2
2014-Oct-15 13:33N 37°52' E 023°20'10 9.2
2014-Oct-15 12:30N 37°54' E 023°08'2 2.3
2014-Oct-15 11:28N 37°55' E 023°05'0 0.0
2014-Oct-15 10:32N 37°55' E 023°05'0 0.0
2014-Oct-15 09:33N 37°55' E 023°05'0 0.0
2014-Oct-15 08:27N 37°55' E 023°05'0 0.1
2014-Oct-15 07:29N 37°55' E 023°05'0 0.5
2014-Oct-15 06:30N 37°55' E 023°06'0 0.0
2014-Oct-15 04:30N 37°55' E 023°06'0 0.0
2014-Oct-15 03:32N 37°55' E 023°06'6 5.9
2014-Oct-15 02:30N 37°53' E 023°13'8 8.8
2014-Oct-15 01:33N 37°51' E 023°24'9 8.7
2014-Oct-15 00:33N 37°50' E 023°35'7 7.4
2014-Oct-14 23:33N 37°46' E 023°42'8 8.4
2014-Oct-14 22:33N 37°39' E 023°49'29 8.4
2014-Oct-14 19:10N 37°30' E 024°23'6 8.6
2014-Oct-14 18:30N 37°31' E 024°30'8 9.0
2014-Oct-14 17:33N 37°31' E 024°41'14 7.0
2014-Oct-14 15:33N 37°27' E 024°58'1 1.2
2014-Oct-14 14:31N 37°26' E 024°56'1 0.5
2014-Oct-14 13:07N 37°26' E 024°57'  

Dump ship's entire track history